createdAt,value
2022-10-06T00:00:24.808Z,1.00
2022-10-06T00:02:26.598Z,0.90
2022-10-06T00:04:28.298Z,1.10
2022-10-06T00:06:29.942Z,0.90
2022-10-06T00:08:32.829Z,1.20
2022-10-06T00:10:34.494Z,0.85
2022-10-06T00:12:47.034Z,1.10
2022-10-06T00:14:48.741Z,1.10
2022-10-06T00:16:50.487Z,0.90
2022-10-06T00:18:52.210Z,0.90
2022-10-06T00:20:57.430Z,0.80
2022-10-06T00:22:59.103Z,1.00
2022-10-06T00:25:00.800Z,1.00
2022-10-06T00:27:02.444Z,1.10
2022-10-06T00:29:04.144Z,0.90
2022-10-06T00:31:05.994Z,0.80
2022-10-06T00:33:07.721Z,0.80
2022-10-06T00:35:09.380Z,1.00
2022-10-06T00:37:11.045Z,0.90
2022-10-06T00:39:12.799Z,0.95
2022-10-06T00:41:15.542Z,1.08
2022-10-06T00:43:55.195Z,1.00
2022-10-06T00:45:56.971Z,1.05
2022-10-06T00:48:00.926Z,0.90
2022-10-06T00:50:02.657Z,0.90
2022-10-06T00:52:16.850Z,1.08
2022-10-06T00:54:18.580Z,0.90
2022-10-06T00:56:20.349Z,1.10
2022-10-06T00:58:22.013Z,0.77
2022-10-06T01:00:23.670Z,1.00
2022-10-06T01:02:27.808Z,1.00
2022-10-06T01:04:36.602Z,1.00
2022-10-06T01:07:04.657Z,1.00
2022-10-06T01:09:06.384Z,0.90
2022-10-06T01:11:12.183Z,0.80
2022-10-06T01:13:13.912Z,0.73
2022-10-06T01:15:16.278Z,0.80
2022-10-06T01:17:27.332Z,1.05
2022-10-06T01:19:31.906Z,0.80
2022-10-06T01:21:43.423Z,1.00
2022-10-06T01:23:45.111Z,0.90
2022-10-06T01:25:46.883Z,0.80
2022-10-06T01:27:49.670Z,0.93
2022-10-06T01:29:54.491Z,0.93
2022-10-06T01:31:56.252Z,0.88
2022-10-06T01:33:57.994Z,0.90
2022-10-06T01:35:59.687Z,0.90
2022-10-06T01:38:01.437Z,1.10
2022-10-06T01:40:03.262Z,1.00
2022-10-06T01:42:05.231Z,0.80
2022-10-06T01:44:07.036Z,0.90
2022-10-06T01:46:08.737Z,1.10
2022-10-06T01:48:10.484Z,0.80
2022-10-06T01:50:12.223Z,0.90
2022-10-06T01:52:13.909Z,0.90
2022-10-06T01:54:15.554Z,0.70
2022-10-06T01:56:17.335Z,0.80
2022-10-06T01:58:19.017Z,0.75
2022-10-06T02:00:20.759Z,1.00
2022-10-06T02:02:22.476Z,0.80
2022-10-06T02:04:24.194Z,0.90
2022-10-06T02:06:25.972Z,0.82
2022-10-06T02:08:28.102Z,1.00
2022-10-06T02:10:30.092Z,0.85
2022-10-06T02:12:32.062Z,1.00
2022-10-06T02:14:33.775Z,1.00
2022-10-06T02:16:35.448Z,0.90
2022-10-06T02:18:37.190Z,0.85
2022-10-06T02:20:38.886Z,0.73
2022-10-06T02:22:40.627Z,0.80
2022-10-06T02:24:42.379Z,0.85
2022-10-06T02:26:44.074Z,0.90
2022-10-06T02:28:46.426Z,0.90
2022-10-06T02:30:48.213Z,0.80
2022-10-06T02:32:49.886Z,0.70
2022-10-06T02:34:51.577Z,0.90
2022-10-06T02:36:53.336Z,0.80
2022-10-06T02:38:55.046Z,0.80
2022-10-06T02:40:56.749Z,0.88
2022-10-06T02:42:58.449Z,0.75
2022-10-06T02:45:00.166Z,0.90
2022-10-06T02:47:01.887Z,0.90
2022-10-06T02:49:03.745Z,0.88
2022-10-06T02:51:11.032Z,0.70
2022-10-06T02:53:12.689Z,0.82
2022-10-06T02:55:14.332Z,0.90
2022-10-06T02:57:15.979Z,1.00
2022-10-06T02:59:17.801Z,0.80
2022-10-06T03:01:28.723Z,1.05
2022-10-06T03:03:31.226Z,0.93
2022-10-06T03:05:32.892Z,1.00
2022-10-06T03:07:34.576Z,0.93
2022-10-06T03:09:36.253Z,0.90
2022-10-06T03:11:39.692Z,0.90
2022-10-06T03:13:41.391Z,0.90
2022-10-06T03:15:43.203Z,1.02
2022-10-06T03:17:48.845Z,1.00
2022-10-06T03:19:50.624Z,0.95
2022-10-06T03:21:52.311Z,1.40
2022-10-06T03:23:53.943Z,1.30
2022-10-06T03:25:57.057Z,1.10
2022-10-06T03:27:58.796Z,0.95
2022-10-06T03:30:00.816Z,1.10
2022-10-06T03:32:02.483Z,1.00
2022-10-06T03:34:04.293Z,0.90
2022-10-06T03:36:07.713Z,1.10
2022-10-06T03:38:09.367Z,1.00
2022-10-06T03:40:11.053Z,1.02
2022-10-06T03:42:12.768Z,1.05
2022-10-06T03:44:14.529Z,1.00
2022-10-06T03:46:17.750Z,1.13
2022-10-06T03:48:19.424Z,1.13
2022-10-06T03:50:21.161Z,1.00
2022-10-06T03:52:26.041Z,1.00
2022-10-06T03:54:27.922Z,1.10
2022-10-06T03:56:33.889Z,1.13
2022-10-06T03:58:36.766Z,1.33
2022-10-06T04:00:38.517Z,1.20
2022-10-06T04:02:40.210Z,1.00
2022-10-06T04:04:41.891Z,1.10
2022-10-06T04:06:43.855Z,1.20
2022-10-06T04:08:48.434Z,1.17
2022-10-06T04:10:50.209Z,1.30
2022-10-06T04:12:51.870Z,1.25
2022-10-06T04:14:56.590Z,1.20
2022-10-06T04:17:01.613Z,1.10
2022-10-06T04:19:05.038Z,1.40
2022-10-06T04:21:06.696Z,1.55
2022-10-06T04:23:08.900Z,1.30
2022-10-06T04:25:10.636Z,1.10
2022-10-06T04:27:12.342Z,1.40
2022-10-06T04:29:14.310Z,1.13
2022-10-06T04:31:16.832Z,1.20
2022-10-06T04:33:18.612Z,1.40
2022-10-06T04:35:20.367Z,1.27
2022-10-06T04:37:22.083Z,1.33
2022-10-06T04:39:23.719Z,1.20
2022-10-06T04:41:27.032Z,1.20
2022-10-06T04:43:28.805Z,1.45
2022-10-06T04:45:30.505Z,1.15
2022-10-06T04:47:32.390Z,1.30
2022-10-06T04:49:34.100Z,1.20
2022-10-06T04:51:35.726Z,1.27
2022-10-06T04:53:37.397Z,1.23
2022-10-06T04:55:39.118Z,1.20
2022-10-06T04:57:40.822Z,1.40
2022-10-06T04:59:42.530Z,1.33
2022-10-06T05:01:44.412Z,1.45
2022-10-06T05:03:46.559Z,1.30
2022-10-06T05:05:48.245Z,1.13
2022-10-06T05:07:49.994Z,1.48
2022-10-06T05:09:51.729Z,1.25
2022-10-06T05:11:53.450Z,1.40
2022-10-06T05:13:56.227Z,1.38
2022-10-06T05:16:01.567Z,1.25
2022-10-06T05:18:03.645Z,1.40
2022-10-06T05:20:05.722Z,1.42
2022-10-06T05:22:07.378Z,1.27
2022-10-06T05:24:09.059Z,1.48
2022-10-06T05:26:12.067Z,1.30
2022-10-06T05:28:13.839Z,1.40
2022-10-06T05:30:15.533Z,1.40
2022-10-06T05:32:17.220Z,1.38
2022-10-06T05:34:18.952Z,1.30
2022-10-06T05:36:22.011Z,1.25
2022-10-06T05:38:23.667Z,1.38
2022-10-06T05:40:25.426Z,1.50
2022-10-06T05:42:29.627Z,1.35
2022-10-06T05:44:31.624Z,1.30
2022-10-06T05:46:33.461Z,1.30
2022-10-06T05:48:35.094Z,1.48
2022-10-06T05:50:36.854Z,1.50
2022-10-06T05:52:38.573Z,1.48
2022-10-06T05:54:40.293Z,1.60
2022-10-06T05:56:41.965Z,1.38
2022-10-06T05:58:45.600Z,1.60
2022-10-06T06:00:47.269Z,1.58
2022-10-06T06:02:49.094Z,1.73
2022-10-06T06:04:50.810Z,1.58
2022-10-06T06:06:52.505Z,1.50
2022-10-06T06:08:56.127Z,1.73
2022-10-06T06:11:05.729Z,1.80
2022-10-06T06:13:07.384Z,1.52
2022-10-06T06:15:09.455Z,1.60
2022-10-06T06:17:11.180Z,1.60
2022-10-06T06:19:13.336Z,1.77
2022-10-06T06:21:15.055Z,1.42
2022-10-06T06:23:16.698Z,1.80
2022-10-06T06:25:18.408Z,1.80
2022-10-06T06:27:20.050Z,1.60
2022-10-06T06:29:21.762Z,1.67
2022-10-06T06:31:25.132Z,1.65
2022-10-06T06:33:26.865Z,1.50
2022-10-06T06:35:28.488Z,1.95
2022-10-06T06:37:30.182Z,1.80
2022-10-06T06:39:31.925Z,2.10
2022-10-06T06:41:37.694Z,1.70
2022-10-06T06:43:39.414Z,1.80
2022-10-06T06:45:41.159Z,1.85
2022-10-06T06:47:42.877Z,1.70
2022-10-06T06:49:44.487Z,1.95
2022-10-06T06:51:46.453Z,1.70
2022-10-06T06:53:48.138Z,1.73
2022-10-06T06:55:50.063Z,1.88
2022-10-06T06:57:51.732Z,1.70
2022-10-06T06:59:53.448Z,1.90
2022-10-06T07:01:55.196Z,1.70
2022-10-06T07:03:58.234Z,1.50
2022-10-06T07:06:07.636Z,1.60
2022-10-06T07:08:09.363Z,1.80
2022-10-06T07:10:11.179Z,1.80
2022-10-06T07:12:12.836Z,1.90
2022-10-06T07:14:14.582Z,2.20
2022-10-06T07:16:18.014Z,2.00
2022-10-06T07:18:19.686Z,1.95
2022-10-06T07:20:21.407Z,1.90
2022-10-06T07:22:24.451Z,1.98
2022-10-06T07:24:26.126Z,1.88
2022-10-06T07:26:27.814Z,1.90
2022-10-06T07:28:29.532Z,2.00
2022-10-06T07:30:31.241Z,1.73
2022-10-06T07:32:32.881Z,1.83
2022-10-06T07:34:34.571Z,2.10
2022-10-06T07:36:36.362Z,1.92
2022-10-06T07:38:38.282Z,1.92
2022-10-06T07:40:46.378Z,1.80
2022-10-06T07:42:52.522Z,1.90
2022-10-06T07:44:54.611Z,1.85
2022-10-06T07:46:56.704Z,1.80
2022-10-06T07:48:58.330Z,2.00
2022-10-06T07:50:59.992Z,1.88
2022-10-06T07:53:01.757Z,2.03
2022-10-06T07:55:03.743Z,1.90
2022-10-06T07:57:05.404Z,1.80
2022-10-06T07:59:07.103Z,2.00
2022-10-06T08:01:10.703Z,1.95
2022-10-06T08:03:13.158Z,2.00
2022-10-06T08:05:14.931Z,2.10
2022-10-06T08:07:16.831Z,1.90
2022-10-06T08:09:18.509Z,1.88
2022-10-06T08:11:20.365Z,1.90
2022-10-06T08:13:22.062Z,1.90
2022-10-06T08:15:23.742Z,1.90
2022-10-06T08:17:25.491Z,1.90
2022-10-06T08:19:27.275Z,1.88
2022-10-06T08:21:30.456Z,1.63
2022-10-06T08:23:32.157Z,1.80
2022-10-06T08:25:33.835Z,1.65
2022-10-06T08:27:36.163Z,2.00
2022-10-06T08:29:37.866Z,2.08
2022-10-06T08:31:39.651Z,1.63
2022-10-06T08:33:45.537Z,1.95
2022-10-06T08:35:47.229Z,1.85
2022-10-06T08:37:48.953Z,1.90
2022-10-06T08:39:51.433Z,1.90
2022-10-06T08:41:53.127Z,2.00
2022-10-06T08:44:26.075Z,2.10
2022-10-06T08:46:32.883Z,2.00
2022-10-06T08:48:34.515Z,2.30
2022-10-06T08:51:05.997Z,2.08
2022-10-06T08:53:15.483Z,2.08
2022-10-06T08:55:46.807Z,2.38
2022-10-06T08:57:57.468Z,2.00
2022-10-06T08:59:59.199Z,2.20
2022-10-06T09:02:01.113Z,2.00
2022-10-06T09:04:03.466Z,2.05
2022-10-06T09:06:12.388Z,2.00
2022-10-06T09:08:50.925Z,2.08
2022-10-06T09:10:52.476Z,2.10
2022-10-06T09:13:03.081Z,2.30
2022-10-06T09:15:41.994Z,2.22
2022-10-06T09:17:46.836Z,2.08
2022-10-06T09:19:58.633Z,2.13
2022-10-06T09:22:00.484Z,2.40
2022-10-06T09:24:06.547Z,2.13
2022-10-06T09:26:15.155Z,2.08
2022-10-06T09:28:16.863Z,2.00
2022-10-06T09:30:18.886Z,1.95
2022-10-06T09:32:22.065Z,1.85
2022-10-06T09:34:29.421Z,2.20
2022-10-06T09:36:31.560Z,2.30
2022-10-06T09:38:54.431Z,2.17
2022-10-06T09:40:56.131Z,2.10
2022-10-06T09:42:57.883Z,1.80
2022-10-06T09:45:23.025Z,2.00
2022-10-06T09:47:30.707Z,2.03
2022-10-06T09:49:32.349Z,1.95
2022-10-06T09:51:34.074Z,2.00
2022-10-06T09:53:37.769Z,2.15
2022-10-06T09:56:01.326Z,2.05
2022-10-06T09:58:04.014Z,2.08
2022-10-06T10:00:28.593Z,2.10
2022-10-06T10:02:33.988Z,2.10
2022-10-06T10:04:37.940Z,2.15
2022-10-06T10:06:39.655Z,2.33
2022-10-06T10:08:41.324Z,2.30
2022-10-06T10:11:07.984Z,2.30
2022-10-06T10:13:23.832Z,2.20
2022-10-06T10:15:34.083Z,1.98
2022-10-06T10:17:45.727Z,2.10
2022-10-06T10:19:52.226Z,2.00
2022-10-06T10:21:54.135Z,2.03
2022-10-06T10:23:59.153Z,2.00
2022-10-06T10:26:45.057Z,2.20
2022-10-06T10:29:23.713Z,2.00
2022-10-06T10:31:42.863Z,2.10
2022-10-06T10:33:59.503Z,1.95
2022-10-06T10:36:13.380Z,2.05
2022-10-06T10:38:24.407Z,2.30
2022-10-06T10:40:29.330Z,2.13
2022-10-06T10:42:37.886Z,2.10
2022-10-06T10:44:43.256Z,2.10
2022-10-06T10:46:49.825Z,2.22
2022-10-06T10:48:57.353Z,2.30
2022-10-06T10:51:33.086Z,2.33
2022-10-06T10:55:45.899Z,2.40
2022-10-06T10:57:47.629Z,2.50
2022-10-06T11:00:09.149Z,2.10
2022-10-06T11:02:20.737Z,2.35
2022-10-06T11:04:22.532Z,2.40
2022-10-06T11:06:27.013Z,2.25
2022-10-06T11:09:00.333Z,2.33
2022-10-06T11:11:04.489Z,2.30
2022-10-06T11:13:27.328Z,2.00
2022-10-06T11:15:52.649Z,2.60
2022-10-06T11:17:54.949Z,2.20
2022-10-06T11:20:14.651Z,2.40
2022-10-06T11:22:46.788Z,2.38
2022-10-06T11:25:11.103Z,2.50
2022-10-06T11:27:22.385Z,2.42
2022-10-06T11:29:52.969Z,2.38
2022-10-06T11:32:07.694Z,2.50
2022-10-06T11:34:09.627Z,2.30
2022-10-06T11:36:15.121Z,2.45
2022-10-06T11:38:30.283Z,2.55
2022-10-06T11:40:56.720Z,2.45
2022-10-06T11:43:39.884Z,2.45
2022-10-06T11:45:55.281Z,2.33
2022-10-06T11:48:25.224Z,2.50
2022-10-06T11:50:32.970Z,2.40
2022-10-06T11:52:35.143Z,2.60
2022-10-06T11:54:39.836Z,2.50
2022-10-06T11:56:41.488Z,2.13
2022-10-06T11:58:52.226Z,2.30
2022-10-06T12:00:53.944Z,2.40
2022-10-06T12:02:55.744Z,2.53
2022-10-06T12:05:28.620Z,2.38
2022-10-06T12:07:57.198Z,2.55
2022-10-06T12:10:27.838Z,2.50
2022-10-06T12:12:29.424Z,2.60
2022-10-06T12:17:19.454Z,2.65
2022-10-06T12:19:52.001Z,2.40
2022-10-06T12:22:07.513Z,2.85
2022-10-06T12:24:32.602Z,2.58
2022-10-06T12:26:54.489Z,2.67
2022-10-06T12:29:19.700Z,2.60
2022-10-06T12:33:41.361Z,3.30
2022-10-06T12:35:43.157Z,2.90
2022-10-06T12:37:48.970Z,3.15
2022-10-06T12:39:53.268Z,2.92
2022-10-06T12:42:01.294Z,2.97
2022-10-06T12:44:03.000Z,3.03
2022-10-06T12:46:12.377Z,3.17
2022-10-06T12:48:24.749Z,3.40
2022-10-06T12:50:26.543Z,2.85
2022-10-06T12:52:50.693Z,2.80
2022-10-06T12:54:59.548Z,3.22
2022-10-06T12:57:02.948Z,3.10
2022-10-06T12:59:19.970Z,2.85
2022-10-06T13:01:21.761Z,2.90
2022-10-06T13:03:24.575Z,3.08
2022-10-06T13:05:26.292Z,3.17
2022-10-06T13:07:29.701Z,3.00
2022-10-06T13:09:31.475Z,3.08
2022-10-06T13:11:33.455Z,2.92
2022-10-06T13:13:35.177Z,2.95
2022-10-06T13:15:36.856Z,2.90
2022-10-06T13:17:54.445Z,2.80
2022-10-06T13:19:56.346Z,3.05
2022-10-06T13:22:02.335Z,3.00
2022-10-06T13:24:04.009Z,2.80
2022-10-06T13:26:07.596Z,3.00
2022-10-06T13:28:43.946Z,3.10
2022-10-06T13:30:53.302Z,3.00
2022-10-06T13:32:55.133Z,2.90
2022-10-06T13:34:56.985Z,2.90
2022-10-06T13:36:59.324Z,2.70
2022-10-06T13:39:03.943Z,2.80
2022-10-06T13:41:30.193Z,2.90
2022-10-06T13:43:35.113Z,2.88
2022-10-06T13:45:42.402Z,3.35
2022-10-06T13:47:43.995Z,2.73
2022-10-06T13:49:54.982Z,2.58
2022-10-06T13:51:58.122Z,3.10
2022-10-06T13:54:01.779Z,2.90
2022-10-06T13:56:03.661Z,3.08
2022-10-06T13:58:08.619Z,2.80
2022-10-06T14:00:14.859Z,3.20
2022-10-06T14:02:19.823Z,3.15
2022-10-06T14:04:21.790Z,2.80
2022-10-06T14:06:23.497Z,3.00
2022-10-06T14:08:27.614Z,2.97
2022-10-06T14:10:31.486Z,3.08
2022-10-06T14:12:34.094Z,3.00
2022-10-06T14:14:35.836Z,3.20
2022-10-06T14:16:37.565Z,3.00
2022-10-06T14:18:45.519Z,2.83
2022-10-06T14:20:50.496Z,2.55
2022-10-06T14:22:52.250Z,2.67
2022-10-06T14:24:54.825Z,2.70
2022-10-06T14:27:01.711Z,2.80
2022-10-06T14:29:03.946Z,3.50
2022-10-06T14:31:10.749Z,2.65
2022-10-06T14:33:15.450Z,2.80
2022-10-06T14:35:17.315Z,2.80
2022-10-06T14:37:19.128Z,2.97
2022-10-06T14:39:20.914Z,3.00
2022-10-06T14:41:23.700Z,2.60
2022-10-06T14:43:25.478Z,2.95
2022-10-06T14:45:27.375Z,3.28
2022-10-06T14:47:29.104Z,2.95
2022-10-06T14:49:30.905Z,3.03
2022-10-06T14:51:36.627Z,2.67
2022-10-06T14:53:38.683Z,3.15
2022-10-06T14:55:40.494Z,3.20
2022-10-06T14:57:42.203Z,3.22
2022-10-06T14:59:43.863Z,3.60
2022-10-06T15:01:45.842Z,3.40
2022-10-06T15:03:51.933Z,3.20
2022-10-06T15:05:53.751Z,3.25
2022-10-06T15:07:55.412Z,3.50
2022-10-06T15:09:57.066Z,3.05
2022-10-06T15:11:59.375Z,3.30
2022-10-06T15:14:01.256Z,2.88
2022-10-06T15:16:02.970Z,3.10
2022-10-06T15:18:04.915Z,2.97
2022-10-06T15:20:06.875Z,3.20
2022-10-06T15:22:08.616Z,3.17
2022-10-06T15:24:13.306Z,3.67
2022-10-06T15:26:15.298Z,3.15
2022-10-06T15:28:18.679Z,3.30
2022-10-06T15:30:23.098Z,3.20
2022-10-06T15:32:25.058Z,2.90
2022-10-06T15:34:28.229Z,3.20
2022-10-06T15:36:30.848Z,2.88
2022-10-06T15:38:35.237Z,2.72
2022-10-06T15:42:38.619Z,3.00
2022-10-06T15:44:40.583Z,2.83
2022-10-06T15:46:44.187Z,3.22
2022-10-06T15:48:46.087Z,3.13
2022-10-06T15:50:48.054Z,2.88
2022-10-06T15:52:49.680Z,3.20
2022-10-06T15:54:51.378Z,3.50
2022-10-06T15:56:54.797Z,3.72
2022-10-06T15:58:56.769Z,3.20
2022-10-06T16:00:58.447Z,3.15
2022-10-06T16:03:00.329Z,4.13
2022-10-06T16:05:02.531Z,3.13
2022-10-06T16:07:07.559Z,3.67
2022-10-06T16:09:10.805Z,3.28
2022-10-06T16:11:12.505Z,3.35
2022-10-06T16:13:14.732Z,3.50
2022-10-06T16:15:16.431Z,3.50
2022-10-06T16:17:18.916Z,3.20
2022-10-06T16:19:20.854Z,3.20
2022-10-06T16:21:22.806Z,3.38
2022-10-06T16:23:25.064Z,3.30
2022-10-06T16:25:27.069Z,3.33
2022-10-06T16:27:33.197Z,3.20
2022-10-06T16:29:35.204Z,3.45
2022-10-06T16:31:36.986Z,3.97
2022-10-06T16:33:39.017Z,3.60
2022-10-06T16:35:40.704Z,3.10
2022-10-06T16:37:42.633Z,3.53
2022-10-06T16:39:44.439Z,3.63
2022-10-06T16:41:46.435Z,3.55
2022-10-06T16:43:49.551Z,3.90
2022-10-06T16:46:02.511Z,3.40
2022-10-06T16:48:04.912Z,3.35
2022-10-06T16:50:07.452Z,3.30
2022-10-06T16:52:09.359Z,3.58
2022-10-06T16:54:12.919Z,3.80
2022-10-06T16:56:28.520Z,3.72
2022-10-06T16:58:47.080Z,3.60
2022-10-06T17:00:56.758Z,3.75
2022-10-06T17:02:58.568Z,3.72
2022-10-06T17:05:00.326Z,3.50
2022-10-06T17:07:02.425Z,4.00
2022-10-06T17:09:04.064Z,3.83
2022-10-06T17:11:12.954Z,3.67
2022-10-06T17:13:14.850Z,3.47
2022-10-06T17:15:17.331Z,3.38
2022-10-06T17:17:19.354Z,3.55
2022-10-06T17:19:22.686Z,3.60
2022-10-06T17:21:45.014Z,3.40
2022-10-06T17:23:46.756Z,3.90
2022-10-06T17:25:58.600Z,3.80
2022-10-06T17:28:00.578Z,3.85
2022-10-06T17:30:02.452Z,3.83
2022-10-06T17:32:04.285Z,4.00
2022-10-06T17:34:10.872Z,4.10
2022-10-06T17:36:16.449Z,3.60
2022-10-06T17:38:18.611Z,3.63
2022-10-06T17:40:20.526Z,3.70
2022-10-06T17:42:22.333Z,3.97
2022-10-06T17:44:24.402Z,3.65
2022-10-06T17:46:26.455Z,3.60
2022-10-06T17:48:28.321Z,4.35
2022-10-06T17:50:30.066Z,3.90
2022-10-06T17:52:31.950Z,3.75
2022-10-06T17:54:33.868Z,3.83
2022-10-06T17:56:35.776Z,3.80
2022-10-06T17:58:40.911Z,3.97
2022-10-06T18:00:42.786Z,3.83
2022-10-06T18:02:45.409Z,3.90
2022-10-06T18:04:47.506Z,3.97
2022-10-06T18:06:51.807Z,3.90
2022-10-06T18:10:59.669Z,3.80
2022-10-06T18:13:01.606Z,4.00
2022-10-06T18:15:03.537Z,4.35
2022-10-06T18:17:05.298Z,3.90
2022-10-06T18:19:11.845Z,4.28
2022-10-06T18:21:13.821Z,4.63
2022-10-06T18:23:16.346Z,3.90
2022-10-06T18:25:18.028Z,3.80
2022-10-06T18:27:19.854Z,3.78
2022-10-06T18:29:23.152Z,4.22
2022-10-06T18:31:24.933Z,4.38
2022-10-06T18:38:17.309Z,3.85
2022-10-06T18:40:18.999Z,3.63
2022-10-06T18:42:20.839Z,3.58
2022-10-06T18:44:22.520Z,3.67
2022-10-06T18:46:24.420Z,3.83
2022-10-06T18:48:26.216Z,3.78
2022-10-06T18:50:28.071Z,4.03
2022-10-06T18:52:29.766Z,3.47
2022-10-06T18:54:31.423Z,3.78
2022-10-06T18:56:34.826Z,3.80
2022-10-06T18:58:40.434Z,3.78
2022-10-06T19:00:42.449Z,3.63
2022-10-06T19:02:48.325Z,3.70
2022-10-06T19:04:50.405Z,3.50
2022-10-06T19:06:53.860Z,3.22
2022-10-06T19:08:57.284Z,3.40
2022-10-06T19:11:05.445Z,3.63
2022-10-06T19:13:07.342Z,3.85
2022-10-06T19:15:09.259Z,3.53
2022-10-06T19:17:11.481Z,3.42
2022-10-06T19:19:15.095Z,3.95
2022-10-06T19:21:16.857Z,3.72
2022-10-06T19:23:18.649Z,3.63
2022-10-06T19:25:20.377Z,3.90
2022-10-06T19:27:22.906Z,3.78
2022-10-06T19:29:26.271Z,3.90
2022-10-06T19:31:28.233Z,4.03
2022-10-06T19:33:30.642Z,4.70
2022-10-06T19:35:32.428Z,3.95
2022-10-06T19:37:34.201Z,4.18
2022-10-06T19:39:39.251Z,4.00
2022-10-06T19:41:41.355Z,4.20
2022-10-06T19:43:43.144Z,4.40
2022-10-06T19:45:46.331Z,4.20
2022-10-06T19:47:48.260Z,4.50
2022-10-06T19:49:49.935Z,4.63
2022-10-06T19:51:51.742Z,4.90
2022-10-06T19:53:53.493Z,5.03
2022-10-06T19:56:01.518Z,4.75
2022-10-06T19:58:03.250Z,4.57
2022-10-06T20:00:06.334Z,4.55
2022-10-06T20:02:08.140Z,4.47
2022-10-06T20:04:09.960Z,4.18
2022-10-06T20:06:13.099Z,4.32
2022-10-06T20:08:14.841Z,4.40
2022-10-06T20:10:16.639Z,4.28
2022-10-06T20:12:23.636Z,4.00
2022-10-06T20:14:26.595Z,4.20
2022-10-06T20:16:28.437Z,3.92
2022-10-06T20:18:34.013Z,3.80
2022-10-06T20:20:35.792Z,3.67
2022-10-06T20:22:37.513Z,3.55
2022-10-06T20:24:39.177Z,4.30
2022-10-06T20:26:41.719Z,3.88
2022-10-06T20:28:44.492Z,3.72
2022-10-06T20:30:46.383Z,4.07
2022-10-06T20:32:48.098Z,4.05
2022-10-06T20:34:49.782Z,4.30
2022-10-06T20:36:55.693Z,3.53
2022-10-06T20:38:58.101Z,4.00
2022-10-06T20:40:59.813Z,3.42
2022-10-06T20:43:01.511Z,3.60
2022-10-06T20:45:03.407Z,3.90
2022-10-06T20:47:05.204Z,3.95
2022-10-06T20:49:11.556Z,3.47
2022-10-06T20:51:13.269Z,3.53
2022-10-06T20:53:14.960Z,3.63
2022-10-06T20:55:16.667Z,3.72
2022-10-06T20:57:18.431Z,3.70
2022-10-06T20:59:21.150Z,3.83
2022-10-06T21:01:23.049Z,3.85
2022-10-06T21:03:24.792Z,3.97
2022-10-06T21:05:26.474Z,3.60
2022-10-06T21:07:28.239Z,3.50
2022-10-06T21:09:29.867Z,3.30
2022-10-06T21:11:31.496Z,3.88
2022-10-06T21:13:33.127Z,3.85
2022-10-06T21:15:34.954Z,3.78
2022-10-06T21:17:36.641Z,3.50
2022-10-06T21:19:38.256Z,3.70
2022-10-06T21:21:40.067Z,3.63
2022-10-06T21:23:43.558Z,3.70
2022-10-06T21:25:45.322Z,3.77
2022-10-06T21:27:47.211Z,3.38
2022-10-06T21:29:49.045Z,3.80
2022-10-06T21:31:50.784Z,3.53
2022-10-06T21:33:52.716Z,3.80
2022-10-06T21:36:01.268Z,4.00
2022-10-06T21:38:02.939Z,3.80
2022-10-06T21:40:05.001Z,3.50
2022-10-06T21:42:06.698Z,3.42
2022-10-06T21:44:15.626Z,3.47
2022-10-06T21:46:28.080Z,3.20
2022-10-06T21:48:30.369Z,3.40
2022-10-06T21:50:32.077Z,3.47
2022-10-06T21:52:33.760Z,3.55
2022-10-06T21:54:35.503Z,3.53
2022-10-06T21:56:37.445Z,3.70
2022-10-06T21:58:39.116Z,3.50
2022-10-06T22:00:40.793Z,3.15
2022-10-06T22:02:42.578Z,3.30
2022-10-06T22:04:44.296Z,3.15
2022-10-06T22:06:46.026Z,3.33
2022-10-06T22:08:47.721Z,3.40
2022-10-06T22:10:49.481Z,3.50
2022-10-06T22:12:51.173Z,3.28
2022-10-06T22:14:52.904Z,3.28
2022-10-06T22:16:54.618Z,3.72
2022-10-06T22:18:56.342Z,3.53
2022-10-06T22:20:58.165Z,3.30
2022-10-06T22:23:04.053Z,3.35
2022-10-06T22:25:06.868Z,3.67
2022-10-06T22:27:08.639Z,3.15
2022-10-06T22:29:12.682Z,3.60
2022-10-06T22:31:14.982Z,3.17
2022-10-06T22:33:16.861Z,3.20
2022-10-06T22:35:18.534Z,3.70
2022-10-06T22:37:20.212Z,3.30
2022-10-06T22:39:21.971Z,3.13
2022-10-06T22:41:23.788Z,3.28
2022-10-06T22:43:25.487Z,3.05
2022-10-06T22:45:27.209Z,3.00
2022-10-06T22:47:29.012Z,3.50
2022-10-06T22:49:30.735Z,2.75
2022-10-06T22:51:33.428Z,3.13
2022-10-06T22:53:35.237Z,3.38
2022-10-06T22:55:36.894Z,3.30
2022-10-06T22:57:38.680Z,3.30
2022-10-06T22:59:40.402Z,3.03
2022-10-06T23:01:42.125Z,2.95
2022-10-06T23:03:43.861Z,2.88
2022-10-06T23:05:58.815Z,3.53
2022-10-06T23:08:00.510Z,2.83
2022-10-06T23:10:02.200Z,3.20
2022-10-06T23:12:03.996Z,3.30
2022-10-06T23:14:05.678Z,3.25
2022-10-06T23:16:12.077Z,3.05
2022-10-06T23:18:13.996Z,2.85
2022-10-06T23:20:15.822Z,3.10
2022-10-06T23:22:17.542Z,3.10
2022-10-06T23:24:19.279Z,2.80
2022-10-06T23:26:21.325Z,3.13
2022-10-06T23:28:23.154Z,2.90
2022-10-06T23:30:24.854Z,2.85
2022-10-06T23:32:26.636Z,3.00
2022-10-06T23:34:28.601Z,3.20
2022-10-06T23:36:30.328Z,2.92
2022-10-06T23:38:32.046Z,2.97
2022-10-06T23:40:33.732Z,3.10
2022-10-06T23:42:35.384Z,3.22
2022-10-06T23:44:37.428Z,3.55
2022-10-06T23:46:39.147Z,3.00
2022-10-06T23:48:40.864Z,2.80
2022-10-06T23:50:42.548Z,3.03
2022-10-06T23:52:44.301Z,3.13
2022-10-06T23:54:45.973Z,3.05
2022-10-06T23:56:47.628Z,3.00
2022-10-06T23:58:52.171Z,3.28
